Sunny Hills, Florida
Current Conditions -  °F | °C
As of 3:53 PM on Saturday 20 Dec 2014 (Local Time) from KECP Reporting Station
Overcast Overcast  
Wind Chill: 55°   Ceiling: 3400
Heat Index: 55°   Visibility: 10mi
Dew Point: 52°   Wind: 9mph
Humidity: 89%   Direction: 350°N
Pressure: 30.07"   Gusts: NA
Location:  30.604°N, 85.5678°W
Report Text: KECP 202153Z 35008KT 10SM OVC034 13/11 A3007 RMK AO2 RAE13 SLP194 P0000 T01280111 $
Loading
Personal Weather Stations






























Interactive Weather Map New forecast layout! Learn more

10-Day Weather Forecast

Advertisements
Track Severe Weather on mobile